sensor_id;sensor_type;location;lat;lon;timestamp;pressure;altitude;pressure_sealevel;temperature;humidity
57248;BME280;55809;46.618;10.764;2023-12-20T00:02:03;93113.88;;;2.29;100.00
57248;BME280;55809;46.618;10.764;2023-12-20T00:04:31;93101.31;;;2.29;100.00
57248;BME280;55809;46.618;10.764;2023-12-20T00:07:00;93094.63;;;2.35;100.00
57248;BME280;55809;46.618;10.764;2023-12-20T00:09:29;93052.78;;;2.20;100.00
57248;BME280;55809;46.618;10.764;2023-12-20T00:11:59;93079.69;;;2.31;100.00
57248;BME280;55809;46.618;10.764;2023-12-20T00:14:28;93066.69;;;2.29;100.00
57248;BME280;55809;46.618;10.764;2023-12-20T00:16:57;93067.81;;;2.28;100.00
57248;BME280;55809;46.618;10.764;2023-12-20T00:19:27;93060.16;;;2.11;100.00
57248;BME280;55809;46.618;10.764;2023-12-20T00:21:57;93049.31;;;2.04;100.00
57248;BME280;55809;46.618;10.764;2023-12-20T00:24:28;93062.75;;;2.07;100.00
57248;BME280;55809;46.618;10.764;2023-12-20T00:26:59;93050.78;;;2.01;100.00
57248;BME280;55809;46.618;10.764;2023-12-20T00:29:28;93050.03;;;2.01;100.00
57248;BME280;55809;46.618;10.764;2023-12-20T00:31:57;93050.13;;;2.04;100.00
57248;BME280;55809;46.618;10.764;2023-12-20T00:34:25;93047.63;;;2.11;100.00
57248;BME280;55809;46.618;10.764;2023-12-20T00:36:54;93041.88;;;2.09;100.00
57248;BME280;55809;46.618;10.764;2023-12-20T00:39:23;93035.19;;;2.16;100.00
57248;BME280;55809;46.618;10.764;2023-12-20T00:42:06;93032.34;;;2.08;100.00
57248;BME280;55809;46.618;10.764;2023-12-20T00:44:35;93031.38;;;2.17;100.00
57248;BME280;55809;46.618;10.764;2023-12-20T00:47:05;93015.84;;;2.34;100.00
57248;BME280;55809;46.618;10.764;2023-12-20T00:49:37;93018.84;;;2.33;100.00
57248;BME280;55809;46.618;10.764;2023-12-20T00:52:08;93011.22;;;2.16;100.00
57248;BME280;55809;46.618;10.764;2023-12-20T00:54:36;93012.56;;;2.09;100.00
57248;BME280;55809;46.618;10.764;2023-12-20T00:57:10;93006.63;;;2.00;100.00
57248;BME280;55809;46.618;10.764;2023-12-20T00:59:38;92878.13;;;1.08;100.00
57248;BME280;55809;46.618;10.764;2023-12-20T01:02:09;93003.22;;;2.00;100.00
57248;BME280;55809;46.618;10.764;2023-12-20T01:04:38;93002.78;;;1.98;100.00
57248;BME280;55809;46.618;10.764;2023-12-20T01:07:07;93011.47;;;1.95;100.00
57248;BME280;55809;46.618;10.764;2023-12-20T01:09:43;93001.50;;;1.92;100.00
57248;BME280;55809;46.618;10.764;2023-12-20T01:12:13;93012.88;;;1.76;100.00
57248;BME280;55809;46.618;10.764;2023-12-20T01:14:42;93015.69;;;1.68;100.00
57248;BME280;55809;46.618;10.764;2023-12-20T01:17:11;93014.19;;;1.54;100.00
57248;BME280;55809;46.618;10.764;2023-12-20T01:19:41;93016.03;;;1.66;100.00
57248;BME280;55809;46.618;10.764;2023-12-20T01:22:08;93014.91;;;1.67;100.00
57248;BME280;55809;46.618;10.764;2023-12-20T01:24:37;93010.94;;;1.61;100.00
57248;BME280;55809;46.618;10.764;2023-12-20T01:27:07;93021.25;;;1.62;100.00
57248;BME280;55809;46.618;10.764;2023-12-20T01:29:49;93012.41;;;1.58;100.00
57248;BME280;55809;46.618;10.764;2023-12-20T01:32:18;93014.19;;;1.54;100.00
57248;BME280;55809;46.618;10.764;2023-12-20T01:34:45;92921.31;;;0.77;100.00
57248;BME280;55809;46.618;10.764;2023-12-20T01:37:17;93007.81;;;1.43;100.00
57248;BME280;55809;46.618;10.764;2023-12-20T01:39:45;93012.28;;;1.39;100.00
57248;BME280;55809;46.618;10.764;2023-12-20T01:42:13;93006.69;;;1.44;100.00
57248;BME280;55809;46.618;10.764;2023-12-20T01:44:46;93000.13;;;1.54;100.00
57248;BME280;55809;46.618;10.764;2023-12-20T01:47:15;92997.00;;;1.80;100.00
57248;BME280;55809;46.618;10.764;2023-12-20T01:49:44;92869.94;;;0.85;100.00
57248;BME280;55809;46.618;10.764;2023-12-20T01:52:13;92983.41;;;1.53;100.00
57248;BME280;55809;46.618;10.764;2023-12-20T01:54:42;92971.97;;;1.53;100.00
57248;BME280;55809;46.618;10.764;2023-12-20T01:57:13;92974.97;;;1.51;100.00
57248;BME280;55809;46.618;10.764;2023-12-20T01:59:48;92967.44;;;1.53;100.00
57248;BME280;55809;46.618;10.764;2023-12-20T02:02:17;92965.97;;;1.56;100.00
57248;BME280;55809;46.618;10.764;2023-12-20T02:04:46;92955.53;;;1.63;100.00
57248;BME280;55809;46.618;10.764;2023-12-20T02:07:13;92898.06;;;1.30;100.00
57248;BME280;55809;46.618;10.764;2023-12-20T02:09:55;92897.75;;;1.48;100.00
57248;BME280;55809;46.618;10.764;2023-12-20T02:12:26;92839.25;;;1.32;100.00
57248;BME280;55809;46.618;10.764;2023-12-20T02:14:57;92923.94;;;2.09;100.00
57248;BME280;55809;46.618;10.764;2023-12-20T02:17:28;92861.28;;;1.64;100.00
57248;BME280;55809;46.618;10.764;2023-12-20T02:19:56;92923.09;;;2.05;100.00
57248;BME280;55809;46.618;10.764;2023-12-20T02:22:32;92914.50;;;1.96;100.00
57248;BME280;55809;46.618;10.764;2023-12-20T02:25:03;92825.41;;;1.58;100.00
57248;BME280;55809;46.618;10.764;2023-12-20T02:27:32;92908.47;;;2.30;100.00
57248;BME280;55809;46.618;10.764;2023-12-20T02:30:01;92897.03;;;2.30;100.00
57248;BME280;55809;46.618;10.764;2023-12-20T02:32:31;92834.44;;;1.85;100.00
57248;BME280;55809;46.618;10.764;2023-12-20T02:35:00;92882.88;;;2.26;100.00
57248;BME280;55809;46.618;10.764;2023-12-20T02:37:35;92879.28;;;2.18;100.00
57248;BME280;55809;46.618;10.764;2023-12-20T02:40:03;92893.91;;;2.08;100.00
57248;BME280;55809;46.618;10.764;2023-12-20T02:42:33;92884.91;;;1.81;100.00
57248;BME280;55809;46.618;10.764;2023-12-20T02:45:04;92882.50;;;1.60;100.00
57248;BME280;55809;46.618;10.764;2023-12-20T02:47:35;92884.13;;;1.49;100.00
57248;BME280;55809;46.618;10.764;2023-12-20T02:50:04;92885.94;;;1.45;100.00
57248;BME280;55809;46.618;10.764;2023-12-20T02:52:40;92862.84;;;1.33;100.00
57248;BME280;55809;46.618;10.764;2023-12-20T02:55:08;92865.94;;;1.35;100.00
57248;BME280;55809;46.618;10.764;2023-12-20T02:57:39;92778.91;;;0.88;100.00
57248;BME280;55809;46.618;10.764;2023-12-20T03:00:08;92857.69;;;1.40;100.00
57248;BME280;55809;46.618;10.764;2023-12-20T03:02:37;92850.84;;;1.39;100.00
57248;BME280;55809;46.618;10.764;2023-12-20T03:05:07;92847.41;;;1.39;100.00
57248;BME280;55809;46.618;10.764;2023-12-20T03:07:37;92839.69;;;1.50;100.00
57248;BME280;55809;46.618;10.764;2023-12-20T03:10:09;92832.06;;;1.48;100.00
57248;BME280;55809;46.618;10.764;2023-12-20T03:12:40;92838.38;;;1.44;100.00
57248;BME280;55809;46.618;10.764;2023-12-20T03:15:12;92838.47;;;1.31;100.00
57248;BME280;55809;46.618;10.764;2023-12-20T03:17:41;92711.34;;;0.58;100.00
57248;BME280;55809;46.618;10.764;2023-12-20T03:20:12;92811.09;;;1.15;100.00
57248;BME280;55809;46.618;10.764;2023-12-20T03:22:45;92839.50;;;1.27;100.00
57248;BME280;55809;46.618;10.764;2023-12-20T03:25:27;92812.03;;;1.07;100.00
57248;BME280;55809;46.618;10.764;2023-12-20T03:27:55;92824.06;;;1.32;100.00
57248;BME280;55809;46.618;10.764;2023-12-20T03:30:22;92815.31;;;1.32;100.00
57248;BME280;55809;46.618;10.764;2023-12-20T03:32:51;92813.44;;;1.32;100.00
57248;BME280;55809;46.618;10.764;2023-12-20T03:35:19;92807.16;;;1.40;100.00
57248;BME280;55809;46.618;10.764;2023-12-20T03:37:48;92805.47;;;1.48;100.00
57248;BME280;55809;46.618;10.764;2023-12-20T03:40:18;92812.47;;;1.40;100.00
57248;BME280;55809;46.618;10.764;2023-12-20T03:42:47;92812.47;;;1.40;100.00
57248;BME280;55809;46.618;10.764;2023-12-20T03:45:29;92800.91;;;1.49;100.00
57248;BME280;55809;46.618;10.764;2023-12-20T03:48:00;92796.19;;;1.42;100.00
57248;BME280;55809;46.618;10.764;2023-12-20T03:50:28;92790.78;;;1.38;100.00
57248;BME280;55809;46.618;10.764;2023-12-20T03:53:12;92732.81;;;0.97;100.00
57248;BME280;55809;46.618;10.764;2023-12-20T03:55:40;92789.50;;;1.32;100.00
57248;BME280;55809;46.618;10.764;2023-12-20T03:58:13;92775.94;;;1.22;100.00
57248;BME280;55809;46.618;10.764;2023-12-20T04:00:42;92710.16;;;0.71;100.00
57248;BME280;55809;46.618;10.764;2023-12-20T04:03:11;92757.50;;;0.97;100.00
57248;BME280;55809;46.618;10.764;2023-12-20T04:05:47;92772.00;;;1.31;100.00
57248;BME280;55809;46.618;10.764;2023-12-20T04:08:16;92759.50;;;1.32;100.00
57248;BME280;55809;46.618;10.764;2023-12-20T04:10:44;92763.00;;;1.52;100.00
57248;BME280;55809;46.618;10.764;2023-12-20T04:13:25;92764.44;;;1.49;100.00
57248;BME280;55809;46.618;10.764;2023-12-20T04:15:53;92747.38;;;1.50;100.00
57248;BME280;55809;46.618;10.764;2023-12-20T04:18:24;92747.88;;;1.56;100.00
57248;BME280;55809;46.618;10.764;2023-12-20T04:21:01;92736.34;;;1.68;100.00
57248;BME280;55809;46.618;10.764;2023-12-20T04:23:33;92756.53;;;1.69;100.00
57248;BME280;55809;46.618;10.764;2023-12-20T04:26:10;92747.66;;;1.64;100.00
57248;BME280;55809;46.618;10.764;2023-12-20T04:28:43;92755.25;;;1.62;100.00
57248;BME280;55809;46.618;10.764;2023-12-20T04:31:13;92757.06;;;1.58;100.00
57248;BME280;55809;46.618;10.764;2023-12-20T04:33:45;92760.91;;;1.61;100.00
57248;BME280;55809;46.618;10.764;2023-12-20T04:36:12;92760.22;;;1.64;100.00
57248;BME280;55809;46.618;10.764;2023-12-20T04:38:42;92716.34;;;1.38;100.00
57248;BME280;55809;46.618;10.764;2023-12-20T04:41:10;92751.13;;;1.65;100.00
57248;BME280;55809;46.618;10.764;2023-12-20T04:43:48;92744.50;;;1.75;100.00
57248;BME280;55809;46.618;10.764;2023-12-20T04:46:17;92699.41;;;1.47;100.00
57248;BME280;55809;46.618;10.764;2023-12-20T04:48:48;92733.84;;;1.75;100.00
57248;BME280;55809;46.618;10.764;2023-12-20T04:51:15;92741.22;;;1.81;100.00
57248;BME280;55809;46.618;10.764;2023-12-20T04:53:42;92739.28;;;1.98;100.00
57248;BME280;55809;46.618;10.764;2023-12-20T04:56:09;92736.22;;;1.80;100.00
57248;BME280;55809;46.618;10.764;2023-12-20T04:58:38;92736.63;;;1.62;100.00
57248;BME280;55809;46.618;10.764;2023-12-20T05:01:24;92734.22;;;1.57;100.00
57248;BME280;55809;46.618;10.764;2023-12-20T05:03:54;92690.44;;;1.35;100.00
57248;BME280;55809;46.618;10.764;2023-12-20T05:06:24;92738.50;;;1.62;100.00
57248;BME280;55809;46.618;10.764;2023-12-20T05:08:52;92734.13;;;1.54;100.00
57248;BME280;55809;46.618;10.764;2023-12-20T05:11:20;92651.28;;;1.01;100.00
57248;BME280;55809;46.618;10.764;2023-12-20T05:13:51;92732.72;;;1.76;100.00
57248;BME280;55809;46.618;10.764;2023-12-20T05:16:20;92732.72;;;2.11;100.00
57248;BME280;55809;46.618;10.764;2023-12-20T05:18:55;92717.56;;;1.96;100.00
57248;BME280;55809;46.618;10.764;2023-12-20T05:21:26;92723.06;;;1.87;100.00
57248;BME280;55809;46.618;10.764;2023-12-20T05:23:54;92717.69;;;1.83;100.00
57248;BME280;55809;46.618;10.764;2023-12-20T05:26:21;92646.78;;;1.36;100.00
57248;BME280;55809;46.618;10.764;2023-12-20T05:29:04;92718.44;;;1.84;100.00
57248;BME280;55809;46.618;10.764;2023-12-20T05:31:35;92720.34;;;1.83;100.00
57248;BME280;55809;46.618;10.764;2023-12-20T05:34:04;92712.34;;;1.83;100.00
57248;BME280;55809;46.618;10.764;2023-12-20T05:36:35;92689.41;;;1.75;100.00
57248;BME280;55809;46.618;10.764;2023-12-20T05:39:05;92728.34;;;2.03;100.00
57248;BME280;55809;46.618;10.764;2023-12-20T05:41:34;92729.88;;;2.04;100.00
57248;BME280;55809;46.618;10.764;2023-12-20T05:44:03;92723.72;;;2.00;100.00
57248;BME280;55809;46.618;10.764;2023-12-20T05:46:32;92723.66;;;1.96;100.00
57248;BME280;55809;46.618;10.764;2023-12-20T05:49:08;92714.47;;;2.13;100.00
57248;BME280;55809;46.618;10.764;2023-12-20T05:51:38;92675.69;;;1.93;100.00
57248;BME280;55809;46.618;10.764;2023-12-20T05:54:09;92719.09;;;2.35;100.00
57248;BME280;55809;46.618;10.764;2023-12-20T05:56:36;92715.47;;;2.44;100.00
57248;BME280;55809;46.618;10.764;2023-12-20T05:59:03;92712.88;;;2.28;100.00
57248;BME280;55809;46.618;10.764;2023-12-20T06:01:32;92667.56;;;1.85;100.00
57248;BME280;55809;46.618;10.764;2023-12-20T06:04:01;92706.72;;;2.04;100.00
57248;BME280;55809;46.618;10.764;2023-12-20T06:06:33;92712.25;;;1.96;100.00
57248;BME280;55809;46.618;10.764;2023-12-20T06:09:02;92706.00;;;1.88;100.00
57248;BME280;55809;46.618;10.764;2023-12-20T06:11:31;92715.03;;;2.03;100.00
57248;BME280;55809;46.618;10.764;2023-12-20T06:14:00;92704.31;;;1.80;100.00
57248;BME280;55809;46.618;10.764;2023-12-20T06:16:28;92735.09;;;2.16;100.00
57248;BME280;55809;46.618;10.764;2023-12-20T06:19:03;92742.31;;;2.16;100.00
57248;BME280;55809;46.618;10.764;2023-12-20T06:21:30;92750.63;;;1.95;100.00
57248;BME280;55809;46.618;10.764;2023-12-20T06:23:58;92753.53;;;1.90;100.00
57248;BME280;55809;46.618;10.764;2023-12-20T06:26:25;92776.06;;;1.76;100.00
57248;BME280;55809;46.618;10.764;2023-12-20T06:28:52;92774.19;;;1.77;100.00
57248;BME280;55809;46.618;10.764;2023-12-20T06:31:19;92776.88;;;1.96;100.00
57248;BME280;55809;46.618;10.764;2023-12-20T06:33:46;92792.38;;;2.10;100.00
57248;BME280;55809;46.618;10.764;2023-12-20T06:36:16;92793.31;;;2.18;100.00
57248;BME280;55809;46.618;10.764;2023-12-20T06:38:46;92798.22;;;2.16;100.00
57248;BME280;55809;46.618;10.764;2023-12-20T06:41:15;92808.94;;;2.19;100.00
57248;BME280;55809;46.618;10.764;2023-12-20T06:43:44;92801.13;;;2.10;100.00
57248;BME280;55809;46.618;10.764;2023-12-20T06:46:12;92803.03;;;2.10;100.00
57248;BME280;55809;46.618;10.764;2023-12-20T06:48:43;92803.34;;;2.24;100.00
57248;BME280;55809;46.618;10.764;2023-12-20T06:51:15;92800.19;;;2.38;100.00
57248;BME280;55809;46.618;10.764;2023-12-20T06:53:47;92800.19;;;2.38;100.00
57248;BME280;55809;46.618;10.764;2023-12-20T06:56:32;92807.84;;;2.40;100.00
57248;BME280;55809;46.618;10.764;2023-12-20T06:59:01;92816.31;;;2.26;100.00
57248;BME280;55809;46.618;10.764;2023-12-20T07:01:33;92804.03;;;2.21;100.00
57248;BME280;55809;46.618;10.764;2023-12-20T07:04:01;92791.97;;;2.08;100.00
57248;BME280;55809;46.618;10.764;2023-12-20T07:06:30;92731.16;;;1.55;100.00
57248;BME280;55809;46.618;10.764;2023-12-20T07:08:57;92790.78;;;2.05;100.00
57248;BME280;55809;46.618;10.764;2023-12-20T07:11:25;92791.00;;;2.16;100.00
57248;BME280;55809;46.618;10.764;2023-12-20T07:13:52;92799.19;;;2.07;100.00
57248;BME280;55809;46.618;10.764;2023-12-20T07:16:19;92792.59;;;2.01;100.00
57248;BME280;55809;46.618;10.764;2023-12-20T07:18:48;92788.72;;;1.99;100.00
57248;BME280;55809;46.618;10.764;2023-12-20T07:21:15;92789.84;;;1.98;100.00
57248;BME280;55809;46.618;10.764;2023-12-20T07:23:42;92789.25;;;2.04;100.00
57248;BME280;55809;46.618;10.764;2023-12-20T07:26:09;92780.19;;;2.09;100.00
57248;BME280;55809;46.618;10.764;2023-12-20T07:28:38;92764.59;;;2.07;100.00
57248;BME280;55809;46.618;10.764;2023-12-20T07:31:06;92744.38;;;2.06;100.00
57248;BME280;55809;46.618;10.764;2023-12-20T07:33:32;92775.31;;;2.50;100.00
57248;BME280;55809;46.618;10.764;2023-12-20T07:36:00;92772.00;;;2.76;100.00
57248;BME280;55809;46.618;10.764;2023-12-20T07:38:27;92781.75;;;2.68;100.00
57248;BME280;55809;46.618;10.764;2023-12-20T07:40:54;92746.09;;;2.53;100.00
57248;BME280;55809;46.618;10.764;2023-12-20T07:43:21;92762.03;;;2.73;100.00
57248;BME280;55809;46.618;10.764;2023-12-20T07:45:49;92766.25;;;2.93;100.00
57248;BME280;55809;46.618;10.764;2023-12-20T07:48:16;92758.38;;;3.23;100.00
57248;BME280;55809;46.618;10.764;2023-12-20T07:50:43;92758.25;;;3.39;100.00
57248;BME280;55809;46.618;10.764;2023-12-20T07:53:10;92761.38;;;3.45;100.00
57248;BME280;55809;46.618;10.764;2023-12-20T07:55:37;92755.03;;;3.53;100.00
57248;BME280;55809;46.618;10.764;2023-12-20T07:58:04;92767.88;;;3.47;100.00
57248;BME280;55809;46.618;10.764;2023-12-20T08:00:33;92762.56;;;3.47;100.00
57248;BME280;55809;46.618;10.764;2023-12-20T08:03:03;92761.47;;;3.29;100.00
57248;BME280;55809;46.618;10.764;2023-12-20T08:05:30;92754.63;;;3.28;100.00
57248;BME280;55809;46.618;10.764;2023-12-20T08:08:00;92751.91;;;3.24;100.00
57248;BME280;55809;46.618;10.764;2023-12-20T08:10:28;92753.84;;;3.27;100.00
57248;BME280;55809;46.618;10.764;2023-12-20T08:12:58;92748.94;;;3.29;100.00
57248;BME280;55809;46.618;10.764;2023-12-20T08:15:24;92684.00;;;2.72;100.00
57248;BME280;55809;46.618;10.764;2023-12-20T08:17:52;92755.00;;;3.26;100.00
57248;BME280;55809;46.618;10.764;2023-12-20T08:20:20;92748.53;;;3.27;100.00
57248;BME280;55809;46.618;10.764;2023-12-20T08:22:47;92742.75;;;3.25;100.00
57248;BME280;55809;46.618;10.764;2023-12-20T08:25:14;92742.81;;;3.29;100.00
57248;BME280;55809;46.618;10.764;2023-12-20T08:27:41;92731.69;;;3.23;100.00
57248;BME280;55809;46.618;10.764;2023-12-20T08:30:09;92730.69;;;3.58;100.00
57248;BME280;55809;46.618;10.764;2023-12-20T08:32:36;92660.69;;;3.42;100.00
57248;BME280;55809;46.618;10.764;2023-12-20T08:35:04;92730.13;;;4.62;100.00
57248;BME280;55809;46.618;10.764;2023-12-20T08:37:32;92728.13;;;4.89;100.00
57248;BME280;55809;46.618;10.764;2023-12-20T08:39:59;92680.44;;;4.99;100.00
57248;BME280;55809;46.618;10.764;2023-12-20T08:42:26;92728.63;;;5.47;100.00
57248;BME280;55809;46.618;10.764;2023-12-20T08:44:56;92734.19;;;5.24;100.00
57248;BME280;55809;46.618;10.764;2023-12-20T08:47:24;92729.94;;;4.78;100.00
57248;BME280;55809;46.618;10.764;2023-12-20T08:49:51;92723.66;;;4.30;100.00
57248;BME280;55809;46.618;10.764;2023-12-20T08:52:21;92727.22;;;4.11;100.00
57248;BME280;55809;46.618;10.764;2023-12-20T08:54:50;92737.31;;;3.94;100.00
57248;BME280;55809;46.618;10.764;2023-12-20T08:57:19;92739.75;;;3.76;100.00
57248;BME280;55809;46.618;10.764;2023-12-20T08:59:48;92717.47;;;3.65;100.00
57248;BME280;55809;46.618;10.764;2023-12-20T09:02:16;92729.59;;;3.59;100.00
57248;BME280;55809;46.618;10.764;2023-12-20T09:04:43;92730.19;;;3.49;100.00
57248;BME280;55809;46.618;10.764;2023-12-20T09:07:21;92736.91;;;3.66;100.00
57248;BME280;55809;46.618;10.764;2023-12-20T09:09:47;92740.34;;;3.66;100.00
57248;BME280;55809;46.618;10.764;2023-12-20T09:12:16;92739.38;;;3.78;100.00
57248;BME280;55809;46.618;10.764;2023-12-20T09:14:44;92741.13;;;3.67;100.00
57248;BME280;55809;46.618;10.764;2023-12-20T09:17:10;92732.66;;;3.61;100.00
57248;BME280;55809;46.618;10.764;2023-12-20T09:19:38;92734.88;;;3.56;100.00
57248;BME280;55809;46.618;10.764;2023-12-20T09:22:05;92749.41;;;3.62;100.00
57248;BME280;55809;46.618;10.764;2023-12-20T09:24:33;92749.41;;;3.62;100.00
57248;BME280;55809;46.618;10.764;2023-12-20T09:27:00;92748.94;;;3.79;100.00
57248;BME280;55809;46.618;10.764;2023-12-20T09:29:28;92751.91;;;3.74;100.00
57248;BME280;55809;46.618;10.764;2023-12-20T09:31:55;92753.50;;;3.79;100.00
57248;BME280;55809;46.618;10.764;2023-12-20T09:34:23;92742.59;;;3.91;100.00
57248;BME280;55809;46.618;10.764;2023-12-20T09:36:51;92748.25;;;3.86;100.00
57248;BME280;55809;46.618;10.764;2023-12-20T09:39:19;92756.28;;;3.86;100.00
57248;BME280;55809;46.618;10.764;2023-12-20T09:41:51;92740.94;;;4.09;100.00
57248;BME280;55809;46.618;10.764;2023-12-20T09:44:22;92734.28;;;3.96;100.00
57248;BME280;55809;46.618;10.764;2023-12-20T09:46:51;92656.16;;;3.42;100.00
57248;BME280;55809;46.618;10.764;2023-12-20T09:49:19;92654.94;;;3.66;100.00
57248;BME280;55809;46.618;10.764;2023-12-20T09:51:47;92725.06;;;4.20;100.00
57248;BME280;55809;46.618;10.764;2023-12-20T09:54:14;92715.84;;;4.17;100.00
57248;BME280;55809;46.618;10.764;2023-12-20T09:56:42;92699.69;;;4.37;100.00
57248;BME280;55809;46.618;10.764;2023-12-20T09:59:09;92702.13;;;4.49;100.00
57248;BME280;55809;46.618;10.764;2023-12-20T10:01:38;92699.09;;;4.88;100.00
57248;BME280;55809;46.618;10.764;2023-12-20T10:04:09;92683.72;;;5.77;100.00
57248;BME280;55809;46.618;10.764;2023-12-20T10:06:37;92654.22;;;6.54;100.00
57248;BME280;55809;46.618;10.764;2023-12-20T10:09:04;92602.56;;;7.21;100.00
57248;BME280;55809;46.618;10.764;2023-12-20T10:11:32;92590.25;;;7.45;100.00
57248;BME280;55809;46.618;10.764;2023-12-20T10:13:59;92679.44;;;8.39;100.00
57248;BME280;55809;46.618;10.764;2023-12-20T10:16:27;92620.97;;;8.57;100.00
57248;BME280;55809;46.618;10.764;2023-12-20T10:18:55;92644.59;;;8.91;100.00
57248;BME280;55809;46.618;10.764;2023-12-20T10:21:24;92650.56;;;9.20;100.00
57248;BME280;55809;46.618;10.764;2023-12-20T10:23:51;92645.41;;;9.40;100.00
57248;BME280;55809;46.618;10.764;2023-12-20T10:26:22;92636.13;;;9.48;100.00
57248;BME280;55809;46.618;10.764;2023-12-20T10:28:50;92648.72;;;9.58;100.00
57248;BME280;55809;46.618;10.764;2023-12-20T10:31:29;92655.25;;;9.57;100.00
57248;BME280;55809;46.618;10.764;2023-12-20T10:33:57;92654.22;;;9.44;100.00
57248;BME280;55809;46.618;10.764;2023-12-20T10:36:27;92539.06;;;8.62;100.00
57248;BME280;55809;46.618;10.764;2023-12-20T10:38:56;92638.94;;;9.30;100.00
57248;BME280;55809;46.618;10.764;2023-12-20T10:41:26;92633.47;;;9.45;100.00
57248;BME280;55809;46.618;10.764;2023-12-20T10:43:56;92629.22;;;9.44;100.00
57248;BME280;55809;46.618;10.764;2023-12-20T10:46:26;92625.06;;;9.35;100.00
57248;BME280;55809;46.618;10.764;2023-12-20T10:48:54;92542.66;;;8.97;100.00
57248;BME280;55809;46.618;10.764;2023-12-20T10:51:22;92581.00;;;9.56;100.00
57248;BME280;55809;46.618;10.764;2023-12-20T10:53:52;92603.53;;;9.73;100.00
57248;BME280;55809;46.618;10.764;2023-12-20T10:56:20;92581.72;;;9.60;100.00
57248;BME280;55809;46.618;10.764;2023-12-20T10:58:49;92583.25;;;9.61;100.00
57248;BME280;55809;46.618;10.764;2023-12-20T11:01:17;92589.25;;;9.76;100.00
57248;BME280;55809;46.618;10.764;2023-12-20T11:03:48;92588.91;;;9.74;100.00
57248;BME280;55809;46.618;10.764;2023-12-20T11:06:31;92587.00;;;9.71;100.00
57248;BME280;55809;46.618;10.764;2023-12-20T11:09:10;92517.47;;;9.18;100.00
57248;BME280;55809;46.618;10.764;2023-12-20T11:11:51;92579.00;;;9.64;100.00
57248;BME280;55809;46.618;10.764;2023-12-20T11:14:23;92473.03;;;9.02;100.00
57248;BME280;55809;46.618;10.764;2023-12-20T11:17:05;92510.94;;;9.19;100.00
57248;BME280;55809;46.618;10.764;2023-12-20T11:19:32;92575.59;;;9.56;100.00
57248;BME280;55809;46.618;10.764;2023-12-20T11:21:59;92565.63;;;9.53;100.00
57248;BME280;55809;46.618;10.764;2023-12-20T11:24:28;92574.19;;;9.45;100.00
57248;BME280;55809;46.618;10.764;2023-12-20T11:26:55;92516.09;;;9.02;100.00
57248;BME280;55809;46.618;10.764;2023-12-20T11:29:35;92575.03;;;9.38;100.00
57248;BME280;55809;46.618;10.764;2023-12-20T11:32:03;92575.03;;;9.34;100.00
57248;BME280;55809;46.618;10.764;2023-12-20T11:34:32;92505.44;;;8.88;100.00
57248;BME280;55809;46.618;10.764;2023-12-20T11:37:00;92584.34;;;9.26;100.00
57248;BME280;55809;46.618;10.764;2023-12-20T11:39:30;92569.72;;;9.27;100.00
57248;BME280;55809;46.618;10.764;2023-12-20T11:42:04;92561.91;;;9.40;100.00
57248;BME280;55809;46.618;10.764;2023-12-20T11:44:32;92404.75;;;8.44;100.00
57248;BME280;55809;46.618;10.764;2023-12-20T11:47:00;92558.34;;;9.50;100.00
57248;BME280;55809;46.618;10.764;2023-12-20T11:49:27;92569.94;;;9.44;100.00
57248;BME280;55809;46.618;10.764;2023-12-20T11:51:56;92567.94;;;9.55;100.00
57248;BME280;55809;46.618;10.764;2023-12-20T11:54:23;92534.53;;;9.45;100.00
57248;BME280;55809;46.618;10.764;2023-12-20T11:56:52;92548.47;;;9.36;100.00
57248;BME280;55809;46.618;10.764;2023-12-20T11:59:19;92558.34;;;9.50;100.00
57248;BME280;55809;46.618;10.764;2023-12-20T12:01:49;92551.19;;;9.33;100.00
57248;BME280;55809;46.618;10.764;2023-12-20T12:04:16;92575.34;;;9.44;100.00
57248;BME280;55809;46.618;10.764;2023-12-20T12:06:43;92577.34;;;9.36;100.00
57248;BME280;55809;46.618;10.764;2023-12-20T12:09:11;92561.03;;;9.09;100.00
57248;BME280;55809;46.618;10.764;2023-12-20T12:11:38;92577.84;;;9.20;100.00
57248;BME280;55809;46.618;10.764;2023-12-20T12:14:07;92541.59;;;8.87;100.00
57248;BME280;55809;46.618;10.764;2023-12-20T12:16:34;92571.78;;;9.12;100.00
57248;BME280;55809;46.618;10.764;2023-12-20T12:19:02;92569.09;;;9.12;100.00
57248;BME280;55809;46.618;10.764;2023-12-20T12:21:29;92564.94;;;9.01;100.00
57248;BME280;55809;46.618;10.764;2023-12-20T12:24:06;92551.47;;;9.01;100.00
57248;BME280;55809;46.618;10.764;2023-12-20T12:26:33;92537.94;;;9.08;100.00
57248;BME280;55809;46.618;10.764;2023-12-20T12:29:00;92519.06;;;9.15;100.00
57248;BME280;55809;46.618;10.764;2023-12-20T12:31:30;92542.38;;;9.32;100.00
57248;BME280;55809;46.618;10.764;2023-12-20T12:33:57;92542.72;;;9.34;100.00
57248;BME280;55809;46.618;10.764;2023-12-20T12:36:24;92529.75;;;9.22;100.00
57248;BME280;55809;46.618;10.764;2023-12-20T12:38:51;92475.22;;;8.73;100.00
57248;BME280;55809;46.618;10.764;2023-12-20T12:41:18;92414.78;;;8.36;100.00
57248;BME280;55809;46.618;10.764;2023-12-20T12:43:45;92505.31;;;9.06;100.00
57248;BME280;55809;46.618;10.764;2023-12-20T12:46:12;92526.72;;;9.16;100.00
57248;BME280;55809;46.618;10.764;2023-12-20T12:48:41;92516.81;;;9.06;100.00
57248;BME280;55809;46.618;10.764;2023-12-20T12:51:08;92506.09;;;9.03;100.00
57248;BME280;55809;46.618;10.764;2023-12-20T12:53:38;92506.44;;;9.05;100.00
57248;BME280;55809;46.618;10.764;2023-12-20T12:56:05;92505.38;;;8.99;100.00
57248;BME280;55809;46.618;10.764;2023-12-20T12:58:32;92503.78;;;9.01;100.00
57248;BME280;55809;46.618;10.764;2023-12-20T13:00:59;92510.69;;;9.06;100.00
57248;BME280;55809;46.618;10.764;2023-12-20T13:03:27;92482.81;;;8.85;100.00